createdAt,value
2019-01-13T00:03:29.730Z,97.71
2019-01-13T00:05:58.049Z,97.77
2019-01-13T00:08:26.366Z,97.80
2019-01-13T00:10:54.658Z,97.81
2019-01-13T00:13:22.960Z,98.08
2019-01-13T00:15:51.272Z,98.22
2019-01-13T00:18:19.591Z,98.32
2019-01-13T00:20:47.882Z,98.34
2019-01-13T00:23:16.218Z,98.22
2019-01-13T00:25:44.506Z,98.34
2019-01-13T00:28:12.812Z,98.51
2019-01-13T00:30:41.108Z,98.53
2019-01-13T00:33:09.409Z,98.34
2019-01-13T00:35:38.015Z,98.41
2019-01-13T00:38:06.301Z,98.60
2019-01-13T00:40:34.619Z,98.56
2019-01-13T00:43:03.242Z,98.68
2019-01-13T00:45:31.573Z,98.72
2019-01-13T00:47:59.878Z,98.67
2019-01-13T00:50:28.201Z,98.60
2019-01-13T00:52:56.753Z,98.56
2019-01-13T00:55:25.057Z,98.49
2019-01-13T00:57:53.417Z,98.59
2019-01-13T01:01:01.875Z,98.63
2019-01-13T01:03:30.160Z,98.70
2019-01-13T01:05:58.470Z,98.66
2019-01-13T01:09:06.814Z,98.73
2019-01-13T01:11:35.476Z,98.67
2019-01-13T01:14:43.814Z,98.74
2019-01-13T01:17:31.583Z,98.78
2019-01-13T01:19:59.880Z,98.84
2019-01-13T01:22:28.191Z,98.82
2019-01-13T01:24:56.491Z,98.89
2019-01-13T01:27:24.782Z,98.75
2019-01-13T01:29:53.110Z,98.77
2019-01-13T01:32:21.405Z,98.77
2019-01-13T01:34:49.726Z,98.78
2019-01-13T01:37:18.027Z,98.90
2019-01-13T01:39:46.630Z,98.91
2019-01-13T01:42:34.121Z,98.71
2019-01-13T01:45:02.445Z,98.80
2019-01-13T01:47:30.747Z,98.88
2019-01-13T01:49:59.047Z,98.86
2019-01-13T01:52:27.668Z,98.87
2019-01-13T01:54:55.969Z,98.87
2019-01-13T01:57:24.293Z,98.99
2019-01-13T01:59:52.591Z,99.15
2019-01-13T02:04:56.164Z,99.18
2019-01-13T02:07:24.415Z,98.94
2019-01-13T02:09:52.718Z,98.85
2019-01-13T02:12:21.038Z,98.95
2019-01-13T02:14:49.342Z,99.08
2019-01-13T02:17:17.651Z,99.19
2019-01-13T02:19:45.946Z,99.19
2019-01-13T02:22:14.252Z,99.17
2019-01-13T02:24:42.561Z,99.17
2019-01-13T02:27:10.861Z,99.09
2019-01-13T02:29:39.490Z,99.09
2019-01-13T02:32:07.785Z,99.05
2019-01-13T02:34:36.088Z,99.17
2019-01-13T02:37:23.593Z,99.10
2019-01-13T02:40:11.285Z,99.22
2019-01-13T02:42:58.967Z,99.24
2019-01-13T02:46:07.323Z,99.23
2019-01-13T02:48:35.623Z,99.31
2019-01-13T02:51:03.951Z,99.21
2019-01-13T02:53:32.604Z,99.26
2019-01-13T02:56:00.929Z,99.17
2019-01-13T02:58:29.549Z,99.13
2019-01-13T03:00:57.867Z,99.19
2019-01-13T03:03:38.752Z,98.86
2019-01-13T03:05:56.558Z,99.17
2019-01-13T03:08:24.862Z,99.21
2019-01-13T03:10:53.181Z,99.15
2019-01-13T03:13:40.599Z,99.27
2019-01-13T03:16:08.913Z,99.06
2019-01-13T03:18:37.225Z,99.24
2019-01-13T03:21:05.520Z,99.13
2019-01-13T03:23:33.827Z,99.27
2019-01-13T03:26:02.122Z,99.24
2019-01-13T03:31:23.508Z,99.30
2019-01-13T03:33:51.826Z,99.36
2019-01-13T03:36:20.125Z,99.25
2019-01-13T03:38:48.449Z,99.16
2019-01-13T03:41:16.752Z,99.17
2019-01-13T03:43:45.076Z,99.16
2019-01-13T03:46:32.825Z,99.16
2019-01-13T03:49:01.129Z,99.24
2019-01-13T03:51:48.804Z,99.24
2019-01-13T03:54:17.437Z,99.34
2019-01-13T03:56:45.746Z,99.50
2019-01-13T03:59:14.082Z,99.59
2019-01-13T04:04:29.706Z,99.65
2019-01-13T04:06:57.995Z,99.64
2019-01-13T04:09:26.285Z,99.71
2019-01-13T04:11:54.605Z,99.84
2019-01-13T04:14:22.906Z,99.85
2019-01-13T04:16:51.215Z,99.80
2019-01-13T04:19:19.516Z,99.86
2019-01-13T04:21:47.826Z,99.92
2019-01-13T04:24:16.123Z,99.91
2019-01-13T04:29:17.961Z,100.00
2019-01-13T04:31:46.282Z,100.00
2019-01-13T04:34:14.575Z,99.89
2019-01-13T04:36:43.236Z,100.00
2019-01-13T04:39:11.530Z,100.00
2019-01-13T04:41:39.824Z,99.96
2019-01-13T04:44:08.141Z,100.00
2019-01-13T04:46:38.547Z,100.00
2019-01-13T04:49:06.775Z,100.00
2019-01-13T04:51:35.093Z,100.00
2019-01-13T04:54:03.418Z,99.93
2019-01-13T04:56:31.721Z,99.97
2019-01-13T04:59:00.270Z,99.93
2019-01-13T05:01:34.429Z,99.95
2019-01-13T05:03:58.613Z,99.97
2019-01-13T05:06:26.930Z,100.00
2019-01-13T05:08:55.228Z,99.91
2019-01-13T05:11:23.543Z,99.93
2019-01-13T05:13:51.854Z,100.00
2019-01-13T05:16:20.170Z,100.00
2019-01-13T05:18:48.740Z,99.97
2019-01-13T05:21:17.054Z,99.96
2019-01-13T05:23:45.352Z,99.88
2019-01-13T05:26:13.666Z,99.91
2019-01-13T05:28:41.951Z,99.96
2019-01-13T05:31:10.315Z,100.00
2019-01-13T05:33:38.906Z,100.00
2019-01-13T05:36:07.209Z,99.97
2019-01-13T05:38:35.519Z,100.00
2019-01-13T05:41:23.433Z,99.89
2019-01-13T05:43:51.751Z,99.80
2019-01-13T05:46:20.057Z,99.87
2019-01-13T05:48:48.740Z,99.99
2019-01-13T05:51:17.047Z,100.00
2019-01-13T05:53:45.375Z,100.00
2019-01-13T05:56:13.672Z,100.00
2019-01-13T05:58:41.991Z,100.00
2019-01-13T06:01:29.729Z,100.00
2019-01-13T06:03:58.363Z,100.00
2019-01-13T06:06:26.959Z,100.00
2019-01-13T06:08:55.278Z,100.00
2019-01-13T06:11:23.583Z,100.00
2019-01-13T06:14:11.287Z,100.00
2019-01-13T06:16:39.590Z,100.00
2019-01-13T06:19:07.899Z,100.00
2019-01-13T06:24:10.216Z,100.00
2019-01-13T06:26:38.524Z,100.00
2019-01-13T06:29:25.933Z,100.00
2019-01-13T06:31:56.481Z,100.00
2019-01-13T06:34:24.270Z,100.00
2019-01-13T06:37:11.696Z,100.00
2019-01-13T06:39:40.002Z,100.00
2019-01-13T06:42:08.319Z,100.00
2019-01-13T06:44:36.614Z,100.00
2019-01-13T06:47:04.923Z,100.00
2019-01-13T06:52:22.208Z,100.00
2019-01-13T06:54:50.497Z,100.00
2019-01-13T06:57:18.818Z,100.00
2019-01-13T06:59:47.105Z,100.00
2019-01-13T07:02:15.390Z,100.00
2019-01-13T07:04:43.721Z,100.00
2019-01-13T07:07:12.022Z,100.00
2019-01-13T07:09:40.342Z,100.00
2019-01-13T07:12:27.765Z,100.00
2019-01-13T07:17:29.920Z,100.00
2019-01-13T07:19:58.574Z,100.00
2019-01-13T07:22:26.857Z,100.00
2019-01-13T07:24:55.162Z,100.00
2019-01-13T07:27:42.869Z,100.00
2019-01-13T07:30:51.232Z,100.00
2019-01-13T07:36:06.862Z,100.00
2019-01-13T07:38:35.150Z,100.00
2019-01-13T07:41:03.435Z,100.00
2019-01-13T07:43:31.753Z,100.00
2019-01-13T07:46:00.052Z,100.00
2019-01-13T07:48:28.659Z,100.00
2019-01-13T07:51:16.332Z,100.00
2019-01-13T07:53:44.644Z,100.00
2019-01-13T07:56:13.253Z,100.00
2019-01-13T08:01:28.873Z,100.00
2019-01-13T08:03:57.434Z,100.00
2019-01-13T08:06:25.736Z,100.00
2019-01-13T08:11:41.362Z,100.00
2019-01-13T08:14:09.659Z,100.00
2019-01-13T08:16:37.960Z,100.00
2019-01-13T08:19:06.555Z,100.00
2019-01-13T08:21:34.877Z,100.00
2019-01-13T08:24:03.166Z,100.00
2019-01-13T08:26:31.467Z,100.00
2019-01-13T08:28:59.761Z,100.00
2019-01-13T08:31:28.343Z,100.00
2019-01-13T08:33:56.653Z,100.00
2019-01-13T08:37:05.008Z,100.00
2019-01-13T08:39:33.311Z,100.00
2019-01-13T08:42:01.603Z,100.00
2019-01-13T08:44:49.038Z,100.00
2019-01-13T08:47:17.333Z,100.00
2019-01-13T08:49:45.644Z,100.00
2019-01-13T08:52:13.937Z,100.00
2019-01-13T08:54:42.246Z,100.00
2019-01-13T08:57:10.536Z,100.00
2019-01-13T08:59:38.840Z,100.00
2019-01-13T09:02:07.139Z,100.00
2019-01-13T09:04:54.581Z,100.00
2019-01-13T09:07:23.182Z,100.00
2019-01-13T09:10:10.875Z,100.00
2019-01-13T09:12:39.166Z,100.00
2019-01-13T09:15:47.524Z,100.00
2019-01-13T09:18:15.880Z,100.00
2019-01-13T09:20:44.201Z,100.00
2019-01-13T09:23:31.947Z,100.00
2019-01-13T09:26:00.269Z,100.00
2019-01-13T09:28:28.577Z,100.00
2019-01-13T09:30:56.895Z,100.00
2019-01-13T09:33:44.570Z,100.00
2019-01-13T09:36:12.892Z,100.00
2019-01-13T09:38:41.185Z,100.00
2019-01-13T09:41:09.482Z,100.00
2019-01-13T09:43:37.794Z,100.00
2019-01-13T09:46:06.100Z,100.00
2019-01-13T09:48:34.408Z,100.00
2019-01-13T09:51:02.976Z,100.00
2019-01-13T09:53:31.302Z,100.00
2019-01-13T09:55:59.640Z,100.00
2019-01-13T09:58:47.147Z,100.00
2019-01-13T10:01:34.824Z,100.00
2019-01-13T10:04:03.144Z,100.00
2019-01-13T10:06:31.448Z,100.00
2019-01-13T10:08:59.750Z,100.00
2019-01-13T10:17:10.245Z,100.00
2019-01-13T10:19:38.566Z,100.00
2019-01-13T10:22:06.866Z,100.00
2019-01-13T10:24:35.154Z,100.00
2019-01-13T10:29:37.072Z,100.00
2019-01-13T10:32:24.755Z,100.00
2019-01-13T10:34:53.049Z,100.00
2019-01-13T10:37:21.362Z,100.00
2019-01-13T10:39:49.674Z,100.00
2019-01-13T10:42:18.282Z,100.00
2019-01-13T10:45:05.954Z,100.00
2019-01-13T10:47:34.282Z,100.00
2019-01-13T10:50:21.944Z,100.00
2019-01-13T10:55:45.324Z,100.00
2019-01-13T10:58:13.629Z,100.00
2019-01-13T11:00:41.922Z,100.00
2019-01-13T11:03:10.230Z,100.00
2019-01-13T11:08:43.369Z,100.00
2019-01-13T11:11:31.032Z,100.00
2019-01-13T11:13:59.651Z,100.00
2019-01-13T11:16:28.248Z,100.00
2019-01-13T11:19:15.899Z,100.00
2019-01-13T11:22:03.723Z,100.00
2019-01-13T11:24:32.380Z,100.00
2019-01-13T11:27:20.288Z,100.00
2019-01-13T11:30:07.989Z,100.00
2019-01-13T11:32:36.533Z,100.00
2019-01-13T11:35:44.903Z,100.00
2019-01-13T11:38:13.540Z,100.00
2019-01-13T11:41:01.217Z,100.00
2019-01-13T11:43:29.522Z,100.00
2019-01-13T11:45:57.830Z,100.00
2019-01-13T11:48:26.150Z,100.00
2019-01-13T11:50:54.450Z,100.00
2019-01-13T11:53:22.773Z,100.00
2019-01-13T11:56:03.226Z,100.00
2019-01-13T11:58:31.538Z,100.00
2019-01-13T12:00:59.845Z,100.00
2019-01-13T12:03:47.973Z,100.00
2019-01-13T12:06:16.591Z,100.00
2019-01-13T12:09:04.295Z,100.00
2019-01-13T12:11:32.583Z,100.00
2019-01-13T12:14:01.189Z,100.00
2019-01-13T12:16:48.865Z,100.00
2019-01-13T12:19:17.151Z,100.00
2019-01-13T12:21:45.785Z,100.00
2019-01-13T12:24:14.360Z,100.00
2019-01-13T12:26:42.946Z,100.00
2019-01-13T12:29:11.236Z,100.00
2019-01-13T12:31:39.532Z,100.00
2019-01-13T12:34:08.191Z,100.00
2019-01-13T12:36:55.885Z,100.00
2019-01-13T12:39:24.496Z,100.00
2019-01-13T12:42:12.196Z,100.00
2019-01-13T12:47:27.831Z,100.00
2019-01-13T12:50:15.496Z,100.00
2019-01-13T12:53:03.202Z,100.00
2019-01-13T12:55:50.623Z,100.00
2019-01-13T12:58:18.932Z,100.00
2019-01-13T13:00:47.485Z,100.00
2019-01-13T13:03:16.170Z,100.00
2019-01-13T13:08:32.069Z,100.00
2019-01-13T13:11:00.369Z,100.00
2019-01-13T13:13:28.933Z,100.00
2019-01-13T13:15:57.245Z,100.00
2019-01-13T13:18:25.536Z,100.00
2019-01-13T13:20:53.838Z,100.00
2019-01-13T13:23:22.141Z,100.00
2019-01-13T13:25:50.443Z,100.00
2019-01-13T13:28:19.177Z,100.00
2019-01-13T13:33:38.925Z,100.00
2019-01-13T13:36:46.191Z,100.00
2019-01-13T13:41:48.000Z,100.00
2019-01-13T13:44:16.305Z,100.00
2019-01-13T13:46:44.602Z,100.00
2019-01-13T13:49:12.906Z,100.00
2019-01-13T13:51:41.197Z,100.00
2019-01-13T13:54:28.880Z,100.00
2019-01-13T13:56:57.177Z,100.00
2019-01-13T14:01:58.922Z,100.00
2019-01-13T14:04:27.225Z,100.00
2019-01-13T14:07:15.116Z,100.00
2019-01-13T14:09:43.476Z,100.00
2019-01-13T14:12:12.038Z,100.00
2019-01-13T14:17:14.594Z,100.00
2019-01-13T14:19:43.149Z,100.00
2019-01-13T14:22:11.449Z,100.00
2019-01-13T14:27:46.418Z,100.00
2019-01-13T14:30:55.008Z,100.00
2019-01-13T14:33:23.640Z,100.00
2019-01-13T14:35:51.927Z,100.00
2019-01-13T14:40:54.017Z,100.00
2019-01-13T14:43:22.321Z,100.00
2019-01-13T14:45:50.616Z,100.00
2019-01-13T14:53:27.152Z,100.00
2019-01-13T14:55:56.271Z,100.00
2019-01-13T14:58:26.066Z,100.00
2019-01-13T15:01:13.497Z,100.00
2019-01-13T15:03:41.814Z,100.00
2019-01-13T15:06:10.105Z,100.00
2019-01-13T15:08:38.427Z,100.00
2019-01-13T15:11:06.712Z,100.00
2019-01-13T15:16:22.325Z,100.00
2019-01-13T15:19:09.727Z,100.00
2019-01-13T15:21:38.035Z,100.00
2019-01-13T15:24:06.334Z,100.00
2019-01-13T15:26:34.950Z,100.00
2019-01-13T15:29:03.252Z,100.00
2019-01-13T15:34:25.085Z,100.00
2019-01-13T15:37:12.869Z,100.00
2019-01-13T15:39:41.408Z,100.00
2019-01-13T15:42:09.736Z,100.00
2019-01-13T15:44:38.041Z,100.00
2019-01-13T15:47:06.338Z,100.00
2019-01-13T15:52:41.599Z,100.00
2019-01-13T15:55:09.973Z,100.00
2019-01-13T15:57:38.294Z,100.00
2019-01-13T16:00:43.740Z,100.00
2019-01-13T16:06:05.702Z,100.00
2019-01-13T16:08:53.407Z,100.00
2019-01-13T16:11:21.710Z,100.00
2019-01-13T16:13:50.016Z,100.00
2019-01-13T16:16:37.687Z,100.00
2019-01-13T16:19:05.992Z,100.00
2019-01-13T16:21:34.290Z,100.00
2019-01-13T16:24:21.933Z,100.00
2019-01-13T16:26:50.229Z,100.00
2019-01-13T16:29:18.556Z,100.00
2019-01-13T16:31:46.849Z,100.00
2019-01-13T16:34:21.414Z,100.00
2019-01-13T16:36:45.477Z,100.00
2019-01-13T16:39:33.168Z,99.96
2019-01-13T16:42:01.447Z,99.95
2019-01-13T16:44:29.738Z,99.91
2019-01-13T16:46:58.057Z,99.71
2019-01-13T16:49:26.361Z,99.64
2019-01-13T16:51:54.668Z,99.45
2019-01-13T16:54:22.946Z,99.17
2019-01-13T16:56:51.257Z,99.16
2019-01-13T16:59:19.800Z,98.98
2019-01-13T17:01:48.120Z,98.92
2019-01-13T17:07:05.987Z,98.67
2019-01-13T17:09:34.345Z,98.63
2019-01-13T17:12:02.662Z,98.42
2019-01-13T17:14:30.940Z,98.25
2019-01-13T17:19:46.552Z,98.02
2019-01-13T17:22:15.167Z,98.05
2019-01-13T17:25:03.081Z,98.05
2019-01-13T17:27:31.682Z,98.03
2019-01-13T17:30:00.002Z,97.90
2019-01-13T17:32:47.658Z,97.73
2019-01-13T17:35:56.013Z,97.65
2019-01-13T17:38:24.323Z,97.25
2019-01-13T17:40:52.609Z,96.98
2019-01-13T17:43:20.911Z,96.68
2019-01-13T17:45:49.520Z,96.55
2019-01-13T17:48:17.813Z,95.46
2019-01-13T17:50:46.112Z,95.45
2019-01-13T17:53:14.410Z,95.88
2019-01-13T17:55:42.721Z,96.20
2019-01-13T17:58:11.006Z,96.46
2019-01-13T18:01:19.359Z,96.66
2019-01-13T18:04:07.023Z,96.80
2019-01-13T18:06:35.341Z,96.45
2019-01-13T18:12:11.705Z,96.52
2019-01-13T18:14:59.112Z,96.46
2019-01-13T18:17:27.408Z,96.68
2019-01-13T18:19:55.707Z,96.77
2019-01-13T18:22:43.352Z,96.58
2019-01-13T18:25:51.678Z,96.68
2019-01-13T18:28:39.434Z,96.46
2019-01-13T18:33:55.058Z,96.46
2019-01-13T18:36:42.678Z,96.20
2019-01-13T18:39:30.383Z,95.81
2019-01-13T18:41:58.676Z,95.83
2019-01-13T18:47:20.591Z,95.62
2019-01-13T18:52:22.536Z,95.17
2019-01-13T18:54:50.847Z,94.87
2019-01-13T18:57:19.141Z,94.88
2019-01-13T18:59:47.434Z,94.68
2019-01-13T19:02:15.749Z,94.89
2019-01-13T19:04:44.049Z,95.01
2019-01-13T19:07:12.740Z,94.92
2019-01-13T19:09:41.028Z,94.80
2019-01-13T19:12:09.341Z,94.49
2019-01-13T19:17:25.272Z,94.18
2019-01-13T19:19:53.557Z,94.12
2019-01-13T19:22:21.854Z,93.76
2019-01-13T19:27:23.723Z,93.83
2019-01-13T19:29:52.025Z,93.79
2019-01-13T19:32:20.656Z,93.57
2019-01-13T19:34:48.956Z,93.89
2019-01-13T19:37:17.274Z,94.03
2019-01-13T19:39:45.589Z,94.09
2019-01-13T19:42:33.257Z,94.12
2019-01-13T19:45:01.913Z,94.07
2019-01-13T19:47:30.207Z,94.22
2019-01-13T19:49:58.514Z,94.18
2019-01-13T19:52:26.796Z,94.07
2019-01-13T19:54:55.091Z,93.80
2019-01-13T19:57:23.424Z,93.73
2019-01-13T19:59:51.720Z,93.69
2019-01-13T20:02:20.025Z,93.67
2019-01-13T20:04:48.326Z,93.35
2019-01-13T20:07:36.021Z,93.10
2019-01-13T20:10:44.357Z,92.76
2019-01-13T20:16:45.522Z,92.09
2019-01-13T20:19:13.843Z,91.70
2019-01-13T20:21:42.143Z,91.02
2019-01-13T20:24:10.445Z,90.70
2019-01-13T20:26:38.757Z,90.71
2019-01-13T20:29:07.064Z,90.51
2019-01-13T20:31:35.396Z,90.26
2019-01-13T20:34:03.685Z,90.34
2019-01-13T20:39:45.727Z,90.06
2019-01-13T20:42:33.406Z,89.96
2019-01-13T20:45:20.835Z,89.87
2019-01-13T20:47:49.152Z,90.02
2019-01-13T20:50:36.891Z,89.96
2019-01-13T20:53:45.241Z,89.79
2019-01-13T20:56:33.257Z,89.82
2019-01-13T21:01:55.306Z,89.51
2019-01-13T21:04:43.075Z,89.11
2019-01-13T21:10:44.903Z,88.79
2019-01-13T21:13:13.718Z,88.46
2019-01-13T21:15:42.014Z,88.11
2019-01-13T21:18:29.448Z,87.67
2019-01-13T21:20:57.746Z,87.08
2019-01-13T21:23:26.064Z,87.01
2019-01-13T21:25:54.343Z,86.96
2019-01-13T21:31:11.953Z,85.59
2019-01-13T21:33:40.245Z,85.70
2019-01-13T21:36:08.541Z,85.30
2019-01-13T21:41:24.169Z,85.23
2019-01-13T21:44:12.075Z,84.97
2019-01-13T21:46:59.510Z,85.25
2019-01-13T21:49:27.806Z,84.79
2019-01-13T21:54:29.927Z,85.27
2019-01-13T21:56:58.244Z,85.28
2019-01-13T21:59:26.539Z,85.41
2019-01-13T22:01:55.154Z,85.60
2019-01-13T22:04:23.440Z,85.79
2019-01-13T22:06:51.729Z,85.67
2019-01-13T22:09:39.650Z,85.39
2019-01-13T22:12:07.932Z,85.22
2019-01-13T22:14:36.525Z,85.18
2019-01-13T22:17:44.848Z,84.78
2019-01-13T22:20:32.512Z,84.78
2019-01-13T22:23:19.957Z,84.31
2019-01-13T22:25:48.265Z,84.93
2019-01-13T22:31:03.891Z,84.91
2019-01-13T22:33:51.809Z,85.54
2019-01-13T22:36:20.125Z,85.68
2019-01-13T22:38:48.426Z,85.59
2019-01-13T22:41:16.727Z,85.65
2019-01-13T22:43:45.012Z,85.33
2019-01-13T22:46:13.318Z,85.25
2019-01-13T22:48:41.869Z,85.37
2019-01-13T22:51:10.178Z,85.64
2019-01-13T22:53:38.471Z,85.95
2019-01-13T22:56:06.780Z,86.15
2019-01-13T22:58:35.064Z,86.22
2019-01-13T23:01:43.671Z,85.98
2019-01-13T23:07:00.919Z,86.17
2019-01-13T23:09:48.964Z,86.12
2019-01-13T23:12:24.241Z,86.06
2019-01-13T23:14:52.537Z,86.45
2019-01-13T23:17:40.224Z,86.47
2019-01-13T23:20:48.542Z,86.56
2019-01-13T23:23:35.966Z,86.62
2019-01-13T23:26:44.310Z,86.26
2019-01-13T23:29:12.608Z,86.61
2019-01-13T23:31:40.891Z,86.52
2019-01-13T23:34:09.175Z,86.73
2019-01-13T23:36:37.782Z,86.57
2019-01-13T23:39:46.115Z,86.84
2019-01-13T23:42:33.787Z,86.86
2019-01-13T23:45:02.089Z,86.86
2019-01-13T23:47:30.393Z,86.94
2019-01-13T23:49:58.672Z,87.00
2019-01-13T23:52:26.989Z,86.75
2019-01-13T23:54:55.619Z,86.41
2019-01-13T23:57:23.923Z,86.88
2019-01-13T23:59:52.200Z,87.10
